Time;durP1;ratioP1;P1;durP2;ratioP2;P2;SDS_P1;SDS_P2;PMS_P1;PMS_P2;Temp;Humidity;BMP_temperature;BMP_pressure;BME280_temperature;BME280_humidity;BME280_pressure;Samples;Min_cycle;Max_cycle;Signal;HPM_P1;HPM_P2
2022/05/11 00:00:39;;;;;;;;;;;;;;;;;;5030662;28;1115;-72
2022/05/11 00:03:06;;;;;;;;;;;;;;;;;;5030427;28;1914;-72
2022/05/11 00:05:32;;;;;;;;;;;;;;;;;;5030588;28;1327;-72
2022/05/11 00:07:58;;;;;;;;;;;;;;;;;;5030128;28;1091;-72
2022/05/11 00:10:26;;;;;;;;;;;;;;;;;;5030451;28;917;-72
2022/05/11 00:12:52;;;;;;;;;;;;;;;;;;5030161;28;949;-72
2022/05/11 00:15:20;;;;;;;;;;;;;;;;;;5030405;28;1326;-72
2022/05/11 00:17:46;;;;;;;;;;;;;;;;;;5028910;28;1354;-72
2022/05/11 00:20:13;;;;;;;;;;;;;;;;;;5029143;28;1127;-72
2022/05/11 00:22:40;;;;;;;;;;;;;;;;;;5030268;28;2026;-72
2022/05/11 00:25:06;;;;;;;;;;;;;;;;;;5030297;28;1301;-72
2022/05/11 00:27:34;;;;;;;;;;;;;;;;;;5029767;28;728;-72
2022/05/11 00:30:01;;;;;;;;;;;;;;;;;;5030263;28;890;-71
2022/05/11 00:32:27;;;;;;;;;;;;;;;;;;5030452;28;878;-72
2022/05/11 00:34:53;;;;;;;;;;;;;;;;;;5030136;28;1403;-72
2022/05/11 00:37:19;;;;;;;;;;;;;;;;;;5030210;28;925;-72
2022/05/11 00:39:46;;;;;;;;;;;;;;;;;;5030636;28;1067;-72
2022/05/11 00:42:12;;;;;;;;;;;;;;;;;;5033908;28;838;-72
2022/05/11 00:44:39;;;;;;;;;;;;;;;;;;5033479;28;1918;-72
2022/05/11 00:47:06;;;;;;;;;;;;;;;;;;5033582;28;1060;-72
2022/05/11 00:49:36;;;;;;;;;;;;;;;;;;5033946;28;1072;-71
2022/05/11 00:52:04;;;;;;;;;;;;;;;;;;5036292;28;1484;-71
2022/05/11 00:54:30;;;;;;;;;;;;;;;;;;5033959;28;1404;-71
2022/05/11 00:56:57;;;;;;;;;;;;;;;;;;5033356;28;953;-71
2022/05/11 00:59:25;;;;;;;;;;;;;;;;;;5033599;28;937;-71
2022/05/11 01:01:53;;;;;;;;;;;;;;;;;;5032306;28;1147;-72
2022/05/11 01:04:20;;;;;;;;;;;;;;;;;;5033507;28;1922;-72
2022/05/11 01:06:46;;;;;;;;;;;;;;;;;;5033594;28;1107;-72
2022/05/11 01:09:13;;;;;;;;;;;;;;;;;;5033466;28;1136;-71
2022/05/11 01:11:39;;;;;;;;;;;;;;;;;;5033550;28;1072;-71
2022/05/11 01:14:06;;;;;;;;;;;;;;;;;;5031997;28;1331;-71
2022/05/11 01:16:33;;;;;;;;;;;;;;;;;;5033318;28;1087;-71
2022/05/11 01:19:00;;;;;;;;;;;;;;;;;;5033076;28;1115;-72
2022/05/11 01:21:27;;;;;;;;;;;;;;;;;;5033242;28;842;-71
2022/05/11 01:23:53;;;;;;;;;;;;;;;;;;5031820;28;1918;-71
2022/05/11 01:26:21;;;;;;;;;;;;;;;;;;5031843;28;1179;-71
2022/05/11 01:28:48;;;;;;;;;;;;;;;;;;5033100;28;965;-71
2022/05/11 01:31:15;;;;;;;;;;;;;;;;;;5032026;28;1340;-72
2022/05/11 01:33:42;;;;;;;;;;;;;;;;;;5033383;28;937;-71
2022/05/11 01:36:10;;;;;;;;;;;;;;;;;;5031391;28;1422;-70
2022/05/11 01:38:38;;;;;;;;;;;;;;;;;;5032780;28;1139;-71
2022/05/11 01:41:04;;;;;;;;;;;;;;;;;;5033000;28;1144;-71
2022/05/11 01:43:32;;;;;;;;;;;;;;;;;;5032811;28;1919;-71
2022/05/11 01:45:59;;;;;;;;;;;;;;;;;;5032661;28;1406;-71
2022/05/11 01:48:25;;;;;;;;;;;;;;;;;;5032812;28;1112;-71
2022/05/11 01:50:52;;;;;;;;;;;;;;;;;;5032623;28;1126;-72
2022/05/11 01:53:18;;;;;;;;;;;;;;;;;;5032031;28;991;-72
2022/05/11 01:55:44;;;;;;;;;;;;;;;;;;5032379;28;1309;-71
2022/05/11 01:58:11;;;;;;;;;;;;;;;;;;5032596;28;1146;-70
2022/05/11 02:00:39;;;;;;;;;;;;;;;;;;5032884;28;1273;-71
2022/05/11 02:03:06;;;;;;;;;;;;;;;;;;5032576;28;1922;-71
2022/05/11 02:08:16;;;;;;;;;;;;;;;;;;5032151;28;1000;-71
2022/05/11 02:10:42;;;;;;;;;;;;;;;;;;5031067;28;1099;-71
2022/05/11 02:13:08;;;;;;;;;;;;;;;;;;5031032;28;1195;-72
2022/05/11 02:15:36;;;;;;;;;;;;;;;;;;5032083;28;1401;-72
2022/05/11 02:18:03;;;;;;;;;;;;;;;;;;5032058;28;1080;-72
2022/05/11 02:20:29;;;;;;;;;;;;;;;;;;5031600;28;1122;-72
2022/05/11 02:22:56;;;;;;;;;;;;;;;;;;5032233;28;779;-71
2022/05/11 02:25:22;;;;;;;;;;;;;;;;;;5031976;28;1918;-71
2022/05/11 02:27:49;;;;;;;;;;;;;;;;;;5031075;28;2394;-71
2022/05/11 02:30:17;;;;;;;;;;;;;;;;;;5040539;28;1138;-71
2022/05/11 02:32:43;;;;;;;;;;;;;;;;;;5031883;28;849;-72
2022/05/11 02:35:14;;;;;;;;;;;;;;;;;;5031727;28;1272;-72
2022/05/11 02:37:40;;;;;;;;;;;;;;;;;;5031863;28;977;-71
2022/05/11 02:40:06;;;;;;;;;;;;;;;;;;5031943;28;1122;-72
2022/05/11 02:42:33;;;;;;;;;;;;;;;;;;5031981;28;866;-71
2022/05/11 02:44:59;;;;;;;;;;;;;;;;;;5031607;28;1964;-71
2022/05/11 02:47:25;;;;;;;;;;;;;;;;;;5031534;28;1005;-71
2022/05/11 02:49:51;;;;;;;;;;;;;;;;;;5031719;28;882;-72
2022/05/11 02:52:19;;;;;;;;;;;;;;;;;;5029713;28;1553;-72
2022/05/11 02:54:46;;;;;;;;;;;;;;;;;;5047605;28;1357;-71
2022/05/11 02:57:13;;;;;;;;;;;;;;;;;;5047746;28;1432;-72
2022/05/11 02:59:39;;;;;;;;;;;;;;;;;;5051326;28;1071;-71
2022/05/11 03:02:05;;;;;;;;;;;;;;;;;;5051341;28;967;-72
2022/05/11 03:04:31;;;;;;;;;;;;;;;;;;5050925;28;1981;-72
2022/05/11 03:06:57;;;;;;;;;;;;;;;;;;5049716;28;962;-71
2022/05/11 03:09:25;;;;;;;;;;;;;;;;;;5051172;28;1075;-72
2022/05/11 03:11:51;;;;;;;;;;;;;;;;;;5051499;28;1080;-72
2022/05/11 03:14:17;;;;;;;;;;;;;;;;;;5051235;28;1412;-71
2022/05/11 03:16:44;;;;;;;;;;;;;;;;;;5051265;28;1124;-71
2022/05/11 03:19:10;;;;;;;;;;;;;;;;;;5051261;28;1103;-71
2022/05/11 03:21:36;;;;;;;;;;;;;;;;;;5050994;28;830;-70
2022/05/11 03:24:02;;;;;;;;;;;;;;;;;;5050812;28;1967;-71
2022/05/11 03:26:30;;;;;;;;;;;;;;;;;;5051248;28;929;-70
2022/05/11 03:28:56;;;;;;;;;;;;;;;;;;5050665;28;933;-71
2022/05/11 03:31:23;;;;;;;;;;;;;;;;;;5051159;28;897;-72
2022/05/11 03:36:32;;;;;;;;;;;;;;;;;;5050460;28;1020;-69
2022/05/11 03:38:59;;;;;;;;;;;;;;;;;;5050658;28;834;-71
2022/05/11 03:41:25;;;;;;;;;;;;;;;;;;5050978;28;1012;-71
2022/05/11 03:43:52;;;;;;;;;;;;;;;;;;5050288;28;1914;-70
2022/05/11 03:46:18;;;;;;;;;;;;;;;;;;5050562;28;981;-71
2022/05/11 03:48:45;;;;;;;;;;;;;;;;;;5050669;28;1055;-71
2022/05/11 03:51:11;;;;;;;;;;;;;;;;;;5049221;28;1331;-71
2022/05/11 03:53:37;;;;;;;;;;;;;;;;;;5046317;28;2006;-70
2022/05/11 03:56:04;;;;;;;;;;;;;;;;;;5042095;28;2010;-71
2022/05/11 03:58:30;;;;;;;;;;;;;;;;;;5042106;28;1173;-71
2022/05/11 04:00:57;;;;;;;;;;;;;;;;;;5033190;28;1169;-71
2022/05/11 04:03:23;;;;;;;;;;;;;;;;;;5030513;28;969;-71
2022/05/11 04:05:50;;;;;;;;;;;;;;;;;;5030337;28;1914;-72
2022/05/11 04:08:16;;;;;;;;;;;;;;;;;;5030329;28;1051;-71
2022/05/11 04:10:42;;;;;;;;;;;;;;;;;;5029412;28;1400;-71
2022/05/11 04:13:08;;;;;;;;;;;;;;;;;;5030787;28;949;-72
2022/05/11 04:15:34;;;;;;;;;;;;;;;;;;5035609;28;1285;-71
2022/05/11 04:18:02;;;;;;;;;;;;;;;;;;5039719;28;1412;-70
2022/05/11 04:20:28;;;;;;;;;;;;;;;;;;5052250;28;1302;-71
2022/05/11 04:22:55;;;;;;;;;;;;;;;;;;5047490;28;1170;-71
2022/05/11 04:25:23;;;;;;;;;;;;;;;;;;5054084;28;1969;-71
2022/05/11 04:27:49;;;;;;;;;;;;;;;;;;5046597;28;1324;-71
2022/05/11 04:30:17;;;;;;;;;;;;;;;;;;5038079;28;1506;-72
2022/05/11 04:32:43;;;;;;;;;;;;;;;;;;5038227;28;1459;-71
2022/05/11 04:35:11;;;;;;;;;;;;;;;;;;5035448;28;1428;-71
2022/05/11 04:37:37;;;;;;;;;;;;;;;;;;5047109;28;1225;-70
2022/05/11 04:40:04;;;;;;;;;;;;;;;;;;5051491;28;1173;-71
2022/05/11 04:42:30;;;;;;;;;;;;;;;;;;5053224;28;1434;-71
2022/05/11 04:44:56;;;;;;;;;;;;;;;;;;5045747;28;1914;-71
2022/05/11 04:47:22;;;;;;;;;;;;;;;;;;5045372;28;1138;-71
2022/05/11 04:49:49;;;;;;;;;;;;;;;;;;5044982;28;1416;-72
2022/05/11 04:52:17;;;;;;;;;;;;;;;;;;5041389;28;1402;-71
2022/05/11 04:54:44;;;;;;;;;;;;;;;;;;5044721;28;1430;-71
2022/05/11 04:57:10;;;;;;;;;;;;;;;;;;5042409;28;1367;-71
2022/05/11 04:59:37;;;;;;;;;;;;;;;;;;5036766;28;1284;-71
2022/05/11 05:02:04;;;;;;;;;;;;;;;;;;5032320;28;1076;-71
2022/05/11 05:04:31;;;;;;;;;;;;;;;;;;5031746;28;1977;-71
2022/05/11 05:06:57;;;;;;;;;;;;;;;;;;5040799;28;1446;-69
2022/05/11 05:09:24;;;;;;;;;;;;;;;;;;5038621;28;1165;-71
2022/05/11 05:11:51;;;;;;;;;;;;;;;;;;5032447;28;1052;-71
2022/05/11 05:14:17;;;;;;;;;;;;;;;;;;5031680;28;1313;-70
2022/05/11 05:16:43;;;;;;;;;;;;;;;;;;5029003;28;1517;-70
2022/05/11 05:19:10;;;;;;;;;;;;;;;;;;5042791;28;1550;-71
2022/05/11 05:21:36;;;;;;;;;;;;;;;;;;5031503;28;934;-71
2022/05/11 05:24:02;;;;;;;;;;;;;;;;;;5031254;28;1907;-69
2022/05/11 05:26:30;;;;;;;;;;;;;;;;;;5034580;28;1414;-69
2022/05/11 05:31:40;;;;;;;;;;;;;;;;;;5024807;28;1403;-70
2022/05/11 05:34:06;;;;;;;;;;;;;;;;;;5040954;28;1464;-69
2022/05/11 05:36:35;;;;;;;;;;;;;;;;;;5041078;28;1540;-71
2022/05/11 05:39:02;;;;;;;;;;;;;;;;;;5048091;28;1359;-70
2022/05/11 05:41:30;;;;;;;;;;;;;;;;;;5044769;28;1043;-70
2022/05/11 05:43:56;;;;;;;;;;;;;;;;;;5042843;28;1438;-71
2022/05/11 05:46:24;;;;;;;;;;;;;;;;;;5044611;28;1957;-70
2022/05/11 05:48:50;;;;;;;;;;;;;;;;;;5042536;28;1383;-71
2022/05/11 05:51:17;;;;;;;;;;;;;;;;;;5047894;28;1479;-71
2022/05/11 05:53:44;;;;;;;;;;;;;;;;;;5042685;28;1400;-71
2022/05/11 05:56:11;;;;;;;;;;;;;;;;;;5040455;28;1283;-72
2022/05/11 05:58:39;;;;;;;;;;;;;;;;;;5032573;28;1107;-70
2022/05/11 06:01:05;;;;;;;;;;;;;;;;;;5031190;28;1072;-70
2022/05/11 06:03:32;;;;;;;;;;;;;;;;;;5035188;28;1192;-72
2022/05/11 06:05:59;;;;;;;;;;;;;;;;;;5042822;28;1968;-71
2022/05/11 06:08:25;;;;;;;;;;;;;;;;;;5039285;28;1268;-71
2022/05/11 06:10:53;;;;;;;;;;;;;;;;;;5041861;28;1310;-70
2022/05/11 06:13:20;;;;;;;;;;;;;;;;;;5039567;28;1251;-71
2022/05/11 06:15:47;;;;;;;;;;;;;;;;;;5052314;28;1286;-72
2022/05/11 06:18:14;;;;;;;;;;;;;;;;;;5050698;28;1241;-72
2022/05/11 06:20:40;;;;;;;;;;;;;;;;;;5052407;28;743;-71
2022/05/11 06:23:06;;;;;;;;;;;;;;;;;;5052167;28;953;-71
2022/05/11 06:25:33;;;;;;;;;;;;;;;;;;5051049;28;1918;-72
2022/05/11 06:27:59;;;;;;;;;;;;;;;;;;5051663;28;1100;-72
2022/05/11 06:30:25;;;;;;;;;;;;;;;;;;5051723;28;894;-72
2022/05/11 06:32:53;;;;;;;;;;;;;;;;;;5051802;28;890;-72
2022/05/11 06:35:19;;;;;;;;;;;;;;;;;;5051418;28;1313;-71
2022/05/11 06:37:45;;;;;;;;;;;;;;;;;;5050984;28;1096;-72
2022/05/11 06:40:12;;;;;;;;;;;;;;;;;;5041503;28;1573;-71
2022/05/11 06:42:39;;;;;;;;;;;;;;;;;;5039655;28;1154;-72
2022/05/11 06:45:06;;;;;;;;;;;;;;;;;;5035296;28;1985;-71
2022/05/11 06:47:32;;;;;;;;;;;;;;;;;;5033557;28;1308;-72
2022/05/11 06:50:00;;;;;;;;;;;;;;;;;;5040410;28;1414;-71
2022/05/11 06:52:26;;;;;;;;;;;;;;;;;;5037681;28;1467;-73
2022/05/11 07:00:20;;;;;;;;;;;;;;;;;;5044940;28;1459;-71
2022/05/11 07:02:46;;;;;;;;;;;;;;;;;;5040507;28;1455;-71
2022/05/11 07:05:14;;;;;;;;;;;;;;;;;;5034565;28;1918;-72
2022/05/11 07:07:40;;;;;;;;;;;;;;;;;;5042280;28;1500;-72
2022/05/11 07:10:07;;;;;;;;;;;;;;;;;;5031743;28;1371;-71
2022/05/11 07:12:35;;;;;;;;;;;;;;;;;;5041916;28;1066;-72
2022/05/11 07:15:02;;;;;;;;;;;;;;;;;;5032946;28;1434;-72
2022/05/11 07:17:30;;;;;;;;;;;;;;;;;;5041517;28;1213;-72
2022/05/11 07:19:57;;;;;;;;;;;;;;;;;;5042311;28;1414;-72
2022/05/11 07:22:24;;;;;;;;;;;;;;;;;;5043338;28;952;-72
2022/05/11 07:24:51;;;;;;;;;;;;;;;;;;5050101;28;1914;-72
2022/05/11 07:27:17;;;;;;;;;;;;;;;;;;5048539;28;1219;-72
2022/05/11 07:29:43;;;;;;;;;;;;;;;;;;5042322;28;1451;-72
2022/05/11 07:32:10;;;;;;;;;;;;;;;;;;5038870;28;1186;-71
2022/05/11 07:34:36;;;;;;;;;;;;;;;;;;5030804;28;1389;-72
2022/05/11 07:37:03;;;;;;;;;;;;;;;;;;5029972;28;1107;-71
2022/05/11 07:39:30;;;;;;;;;;;;;;;;;;5030454;28;843;-70
2022/05/11 07:41:57;;;;;;;;;;;;;;;;;;5030486;28;1072;-73
2022/05/11 07:44:23;;;;;;;;;;;;;;;;;;5033623;28;1521;-73
2022/05/11 07:46:49;;;;;;;;;;;;;;;;;;5040822;28;1918;-73
2022/05/11 07:49:17;;;;;;;;;;;;;;;;;;5034788;28;1435;-72
2022/05/11 07:51:45;;;;;;;;;;;;;;;;;;5041978;28;1161;-72
2022/05/11 07:54:11;;;;;;;;;;;;;;;;;;5042508;28;1573;-71
2022/05/11 08:02:07;;;;;;;;;;;;;;;;;;5044891;28;1347;-72
2022/05/11 08:04:33;;;;;;;;;;;;;;;;;;5045966;28;1442;-72
2022/05/11 08:06:59;;;;;;;;;;;;;;;;;;5042233;28;1922;-70
2022/05/11 08:09:25;;;;;;;;;;;;;;;;;;5047740;28;1173;-72
2022/05/11 08:11:55;;;;;;;;;;;;;;;;;;5037024;28;1119;-71
2022/05/11 08:14:21;;;;;;;;;;;;;;;;;;5045432;28;1426;-71
2022/05/11 08:16:52;;;;;;;;;;;;;;;;;;5032804;28;1391;-71
2022/05/11 08:19:18;;;;;;;;;;;;;;;;;;5035062;28;1691;-71
2022/05/11 08:21:44;;;;;;;;;;;;;;;;;;5046034;28;1175;-71
2022/05/11 08:24:11;;;;;;;;;;;;;;;;;;5048501;28;1621;-70
2022/05/11 08:26:37;;;;;;;;;;;;;;;;;;5033372;28;2005;-71
2022/05/11 08:29:04;;;;;;;;;;;;;;;;;;5037798;28;1167;-70
2022/05/11 08:34:15;;;;;;;;;;;;;;;;;;5037924;28;1545;-72
2022/05/11 08:36:41;;;;;;;;;;;;;;;;;;5043296;28;895;-71
2022/05/11 08:39:07;;;;;;;;;;;;;;;;;;5039882;28;1763;-71
2022/05/11 08:41:34;;;;;;;;;;;;;;;;;;5035684;28;1633;-71
2022/05/11 08:44:02;;;;;;;;;;;;;;;;;;5037546;28;1373;-70
2022/05/11 08:46:34;;;;;;;;;;;;;;;;;;5029073;28;1922;-71
2022/05/11 08:49:01;;;;;;;;;;;;;;;;;;5030904;28;1281;-71
2022/05/11 08:51:30;;;;;;;;;;;;;;;;;;5048610;28;1519;-72
2022/05/11 08:54:00;;;;;;;;;;;;;;;;;;5049135;28;1463;-72
2022/05/11 08:56:28;;;;;;;;;;;;;;;;;;5049113;28;1087;-72
2022/05/11 08:58:54;;;;;;;;;;;;;;;;;;5047913;28;1280;-72
2022/05/11 09:01:21;;;;;;;;;;;;;;;;;;5035430;28;1613;-70
2022/05/11 09:03:52;;;;;;;;;;;;;;;;;;5041218;28;1162;-72
2022/05/11 09:06:19;;;;;;;;;;;;;;;;;;5047916;28;1906;-71
2022/05/11 09:08:45;;;;;;;;;;;;;;;;;;5051795;28;1155;-72
2022/05/11 09:11:12;;;;;;;;;;;;;;;;;;5042016;28;1494;-71
2022/05/11 09:13:38;;;;;;;;;;;;;;;;;;5038143;28;1233;-71
2022/05/11 09:16:06;;;;;;;;;;;;;;;;;;5042476;28;1862;-71
2022/05/11 09:18:39;;;;;;;;;;;;;;;;;;5046938;28;1286;-71
2022/05/11 09:21:19;;;;;;;;;;;;;;;;;;5053173;28;957;-72
2022/05/11 09:23:45;;;;;;;;;;;;;;;;;;5051030;28;1475;-72
2022/05/11 09:26:12;;;;;;;;;;;;;;;;;;5043833;28;1993;-72
2022/05/11 09:28:39;;;;;;;;;;;;;;;;;;5052552;28;1083;-73
2022/05/11 09:31:06;;;;;;;;;;;;;;;;;;5040789;28;1621;-73
2022/05/11 09:33:33;;;;;;;;;;;;;;;;;;5040007;28;1779;-73
2022/05/11 09:36:02;;;;;;;;;;;;;;;;;;5046755;28;1657;-73
2022/05/11 09:38:34;;;;;;;;;;;;;;;;;;5046140;28;1162;-73
2022/05/11 09:41:02;;;;;;;;;;;;;;;;;;5047367;28;1847;-73
2022/05/11 09:43:30;;;;;;;;;;;;;;;;;;5040822;28;1174;-74
2022/05/11 09:45:56;;;;;;;;;;;;;;;;;;5052884;28;1914;-73
2022/05/11 09:48:24;;;;;;;;;;;;;;;;;;5051333;28;1123;-74
2022/05/11 09:50:52;;;;;;;;;;;;;;;;;;5052503;28;1210;-72
2022/05/11 09:53:27;;;;;;;;;;;;;;;;;;5045024;28;1755;-73
2022/05/11 09:55:55;;;;;;;;;;;;;;;;;;5048226;28;1468;-73
2022/05/11 09:58:29;;;;;;;;;;;;;;;;;;5035629;28;2233;-74
2022/05/11 10:00:59;;;;;;;;;;;;;;;;;;5040384;28;1162;-74
2022/05/11 10:03:26;;;;;;;;;;;;;;;;;;5035660;28;1514;-73
2022/05/11 10:05:52;;;;;;;;;;;;;;;;;;5038488;28;1977;-74
2022/05/11 10:08:21;;;;;;;;;;;;;;;;;;5041269;28;1997;-74
2022/05/11 10:10:48;;;;;;;;;;;;;;;;;;5039270;28;1612;-73
2022/05/11 10:13:18;;;;;;;;;;;;;;;;;;5034871;28;1043;-74
2022/05/11 10:24:02;;;;;;;;;;;;;;;;;;5042650;28;1333;-73
2022/05/11 10:26:30;;;;;;;;;;;;;;;;;;5048780;28;1969;-74
2022/05/11 10:28:58;;;;;;;;;;;;;;;;;;5042250;28;1174;-74
2022/05/11 10:31:26;;;;;;;;;;;;;;;;;;5030952;28;1104;-75
2022/05/11 10:33:57;;;;;;;;;;;;;;;;;;5031409;28;1430;-74
2022/05/11 10:36:25;;;;;;;;;;;;;;;;;;5030913;28;953;-72
2022/05/11 10:38:58;;;;;;;;;;;;;;;;;;5036783;28;1898;-74
2022/05/11 10:41:27;;;;;;;;;;;;;;;;;;5039920;28;1621;-74
2022/05/11 10:43:56;;;;;;;;;;;;;;;;;;5039437;28;1350;-73
2022/05/11 10:46:25;;;;;;;;;;;;;;;;;;5030832;28;1918;-75
2022/05/11 10:48:58;;;;;;;;;;;;;;;;;;5031480;28;902;-75
2022/05/11 10:51:25;;;;;;;;;;;;;;;;;;5031127;28;1122;-74
2022/05/11 10:53:54;;;;;;;;;;;;;;;;;;5031198;28;1436;-75
2022/05/11 10:56:26;;;;;;;;;;;;;;;;;;5032767;28;1748;-75
2022/05/11 10:59:22;;;;;;;;;;;;;;;;;;5039325;28;1217;-74
2022/05/11 11:01:52;;;;;;;;;;;;;;;;;;4970326;28;1584;-74
2022/05/11 11:04:24;;;;;;;;;;;;;;;;;;5024072;28;1341;-75
2022/05/11 11:07:14;;;;;;;;;;;;;;;;;;5032038;28;1918;-74
2022/05/11 11:09:43;;;;;;;;;;;;;;;;;;5038736;28;1288;-74
2022/05/11 11:12:14;;;;;;;;;;;;;;;;;;5030934;28;1079;-75
2022/05/11 11:14:42;;;;;;;;;;;;;;;;;;5038448;28;1846;-73
2022/05/11 11:17:10;;;;;;;;;;;;;;;;;;5049059;28;1229;-74
2022/05/11 11:19:37;;;;;;;;;;;;;;;;;;5033999;28;1214;-74
2022/05/11 11:22:05;;;;;;;;;;;;;;;;;;5029269;28;1243;-75
2022/05/11 11:24:31;;;;;;;;;;;;;;;;;;5029753;28;1420;-74
2022/05/11 11:26:58;;;;;;;;;;;;;;;;;;5029877;28;1914;-74
2022/05/11 11:29:25;;;;;;;;;;;;;;;;;;5030478;28;1059;-73
2022/05/11 11:32:01;;;;;;;;;;;;;;;;;;5036637;28;1819;-73
2022/05/11 11:34:31;;;;;;;;;;;;;;;;;;5041096;28;1759;-73
2022/05/11 11:36:57;;;;;;;;;;;;;;;;;;5038278;28;1696;-72
2022/05/11 11:39:42;;;;;;;;;;;;;;;;;;5035433;28;1109;-72
2022/05/11 11:42:08;;;;;;;;;;;;;;;;;;5030637;28;1071;-72
2022/05/11 11:44:39;;;;;;;;;;;;;;;;;;5032493;28;1760;-71
2022/05/11 11:47:20;;;;;;;;;;;;;;;;;;5037847;28;1976;-72
2022/05/11 11:49:48;;;;;;;;;;;;;;;;;;5018164;28;1131;-73
2022/05/11 11:52:32;;;;;;;;;;;;;;;;;;5030289;28;949;-72
2022/05/11 11:54:58;;;;;;;;;;;;;;;;;;5031707;28;1803;-73
2022/05/11 11:57:28;;;;;;;;;;;;;;;;;;5036109;28;1441;-72
2022/05/11 11:59:54;;;;;;;;;;;;;;;;;;5028661;28;1156;-73
2022/05/11 12:02:23;;;;;;;;;;;;;;;;;;5033110;28;1518;-72
2022/05/11 12:04:55;;;;;;;;;;;;;;;;;;5040728;28;1546;-74
2022/05/11 12:15:35;;;;;;;;;;;;;;;;;;5034964;28;1406;-73
2022/05/11 12:18:02;;;;;;;;;;;;;;;;;;5049512;28;1066;-72
2022/05/11 12:20:40;;;;;;;;;;;;;;;;;;5049402;28;1539;-72
2022/05/11 12:23:09;;;;;;;;;;;;;;;;;;5042033;28;1835;-73
2022/05/11 12:25:37;;;;;;;;;;;;;;;;;;5041140;28;1480;-73
2022/05/11 12:28:04;;;;;;;;;;;;;;;;;;5043718;28;1977;-72
2022/05/11 12:30:32;;;;;;;;;;;;;;;;;;5042751;28;1561;-73
2022/05/11 12:32:59;;;;;;;;;;;;;;;;;;5029595;28;945;-72
2022/05/11 12:35:27;;;;;;;;;;;;;;;;;;5035842;28;1784;-73
2022/05/11 12:37:56;;;;;;;;;;;;;;;;;;5049072;28;1251;-75
2022/05/11 12:40:22;;;;;;;;;;;;;;;;;;5052762;28;1063;-73
2022/05/11 12:42:50;;;;;;;;;;;;;;;;;;5041140;28;1780;-72
2022/05/11 12:45:16;;;;;;;;;;;;;;;;;;5042643;28;1549;-70
2022/05/11 12:47:44;;;;;;;;;;;;;;;;;;5045758;28;1918;-73
2022/05/11 12:50:13;;;;;;;;;;;;;;;;;;5045152;28;1221;-74
2022/05/11 12:52:39;;;;;;;;;;;;;;;;;;5044628;28;1561;-72
2022/05/11 12:55:08;;;;;;;;;;;;;;;;;;5042222;28;1392;-74
2022/05/11 12:57:35;;;;;;;;;;;;;;;;;;5037884;28;1554;-76
2022/05/11 13:00:01;;;;;;;;;;;;;;;;;;5038816;28;1455;-76
2022/05/11 13:02:32;;;;;;;;;;;;;;;;;;5041207;28;1007;-76
2022/05/11 13:04:59;;;;;;;;;;;;;;;;;;5038105;28;1832;-75
2022/05/11 13:07:26;;;;;;;;;;;;;;;;;;5040528;28;1958;-74
2022/05/11 13:09:53;;;;;;;;;;;;;;;;;;5032901;28;1561;-74
2022/05/11 13:12:20;;;;;;;;;;;;;;;;;;5040120;28;1462;-74
2022/05/11 13:14:47;;;;;;;;;;;;;;;;;;5039689;28;2209;-75
2022/05/11 13:17:18;;;;;;;;;;;;;;;;;;5033782;28;1378;-74
2022/05/11 13:19:44;;;;;;;;;;;;;;;;;;5040504;28;1447;-74
2022/05/11 13:22:11;;;;;;;;;;;;;;;;;;5040488;28;1345;-75
2022/05/11 13:24:39;;;;;;;;;;;;;;;;;;5035009;28;1664;-74
2022/05/11 13:27:21;;;;;;;;;;;;;;;;;;5041115;28;1914;-74
2022/05/11 13:29:48;;;;;;;;;;;;;;;;;;5052005;28;1427;-75
2022/05/11 13:32:23;;;;;;;;;;;;;;;;;;5019672;28;1071;-75
2022/05/11 13:34:49;;;;;;;;;;;;;;;;;;5033018;28;1399;-74
2022/05/11 13:37:19;;;;;;;;;;;;;;;;;;5037493;28;1811;-75
2022/05/11 13:39:48;;;;;;;;;;;;;;;;;;5040899;28;1597;-74
2022/05/11 13:42:16;;;;;;;;;;;;;;;;;;5032727;28;1120;-74
2022/05/11 13:44:45;;;;;;;;;;;;;;;;;;5032502;28;1404;-74
2022/05/11 13:50:32;;;;;;;;;;;;;;;;;;5033501;28;1171;-73
2022/05/11 13:52:59;;;;;;;;;;;;;;;;;;5032319;28;934;-73
2022/05/11 13:55:28;;;;;;;;;;;;;;;;;;5039013;28;1780;-73
2022/05/11 13:57:54;;;;;;;;;;;;;;;;;;5040343;28;1391;-73
2022/05/11 14:00:24;;;;;;;;;;;;;;;;;;5034336;28;890;-73
2022/05/11 14:02:53;;;;;;;;;;;;;;;;;;5032135;28;1083;-73
2022/05/11 14:05:19;;;;;;;;;;;;;;;;;;5031631;28;1333;-73
2022/05/11 14:07:45;;;;;;;;;;;;;;;;;;5031449;28;1922;-73
2022/05/11 14:10:11;;;;;;;;;;;;;;;;;;5041792;28;1859;-73
2022/05/11 14:12:37;;;;;;;;;;;;;;;;;;5040825;28;1558;-73
2022/05/11 14:15:04;;;;;;;;;;;;;;;;;;5039407;28;1537;-74
2022/05/11 14:17:40;;;;;;;;;;;;;;;;;;5045142;28;1775;-74
2022/05/11 14:20:08;;;;;;;;;;;;;;;;;;5037405;28;1498;-74
2022/05/11 14:22:35;;;;;;;;;;;;;;;;;;5037380;28;1514;-74
2022/05/11 14:25:01;;;;;;;;;;;;;;;;;;5041052;28;1497;-74
2022/05/11 14:27:27;;;;;;;;;;;;;;;;;;5030713;28;2002;-73
2022/05/11 14:29:53;;;;;;;;;;;;;;;;;;5031067;28;1146;-75
2022/05/11 14:32:25;;;;;;;;;;;;;;;;;;5033446;28;1483;-74
2022/05/11 14:34:51;;;;;;;;;;;;;;;;;;5039578;28;1395;-73
2022/05/11 14:37:18;;;;;;;;;;;;;;;;;;5029240;28;1140;-73
2022/05/11 14:39:45;;;;;;;;;;;;;;;;;;5031316;28;1610;-73
2022/05/11 14:42:11;;;;;;;;;;;;;;;;;;5042125;28;1429;-74
2022/05/11 14:44:37;;;;;;;;;;;;;;;;;;5045157;28;1389;-74
2022/05/11 14:47:04;;;;;;;;;;;;;;;;;;5041247;28;1971;-74
2022/05/11 14:49:30;;;;;;;;;;;;;;;;;;5035094;28;1471;-73
2022/05/11 14:51:56;;;;;;;;;;;;;;;;;;5034856;28;1487;-72
2022/05/11 14:54:23;;;;;;;;;;;;;;;;;;5036765;28;1624;-74
2022/05/11 15:01:55;;;;;;;;;;;;;;;;;;5039059;28;1570;-74
2022/05/11 15:02:20;;;;;;;;;;;;;;;;;;5032192;28;1447;-73
2022/05/11 15:04:47;;;;;;;;;;;;;;;;;;5050453;28;1336;-74
2022/05/11 15:07:14;;;;;;;;;;;;;;;;;;5034664;28;1910;-74
2022/05/11 15:09:42;;;;;;;;;;;;;;;;;;5038031;28;1209;-74
2022/05/11 15:14:53;;;;;;;;;;;;;;;;;;5031404;28;1346;-75
2022/05/11 15:17:20;;;;;;;;;;;;;;;;;;5042517;28;1119;-75
2022/05/11 15:19:47;;;;;;;;;;;;;;;;;;5044825;28;1562;-75
2022/05/11 15:22:13;;;;;;;;;;;;;;;;;;5041217;28;1617;-75
2022/05/11 15:24:39;;;;;;;;;;;;;;;;;;5045172;28;1332;-74
2022/05/11 15:27:07;;;;;;;;;;;;;;;;;;5050335;28;1952;-76
2022/05/11 15:29:33;;;;;;;;;;;;;;;;;;5042228;28;1682;-75
2022/05/11 15:31:59;;;;;;;;;;;;;;;;;;5046682;28;1158;-74
2022/05/11 15:34:25;;;;;;;;;;;;;;;;;;5036216;28;1816;-72
2022/05/11 15:36:53;;;;;;;;;;;;;;;;;;5042438;28;1474;-73
2022/05/11 15:39:19;;;;;;;;;;;;;;;;;;5041635;28;1039;-74
2022/05/11 15:41:45;;;;;;;;;;;;;;;;;;5039080;28;1874;-75
2022/05/11 15:44:13;;;;;;;;;;;;;;;;;;5030949;28;1361;-75
2022/05/11 15:46:39;;;;;;;;;;;;;;;;;;5029815;28;1839;-75
2022/05/11 15:49:05;;;;;;;;;;;;;;;;;;5033694;28;1922;-74
2022/05/11 15:51:32;;;;;;;;;;;;;;;;;;5033464;28;997;-74
2022/05/11 15:53:58;;;;;;;;;;;;;;;;;;5046667;28;1340;-74
2022/05/11 15:56:24;;;;;;;;;;;;;;;;;;5049818;28;941;-75
2022/05/11 15:58:50;;;;;;;;;;;;;;;;;;5037305;28;2090;-75
2022/05/11 16:01:19;;;;;;;;;;;;;;;;;;5042699;28;991;-75
2022/05/11 16:03:45;;;;;;;;;;;;;;;;;;5038527;28;1221;-75
2022/05/11 16:06:11;;;;;;;;;;;;;;;;;;5029897;28;1302;-75
2022/05/11 16:08:38;;;;;;;;;;;;;;;;;;5030132;28;1914;-75
2022/05/11 16:11:04;;;;;;;;;;;;;;;;;;5029972;28;1477;-75
2022/05/11 16:13:31;;;;;;;;;;;;;;;;;;5034520;28;1076;-74
2022/05/11 16:15:58;;;;;;;;;;;;;;;;;;5034854;28;1412;-73
2022/05/11 16:21:10;;;;;;;;;;;;;;;;;;5034693;28;977;-74
2022/05/11 16:23:36;;;;;;;;;;;;;;;;;;5039478;28;1489;-72
2022/05/11 16:26:02;;;;;;;;;;;;;;;;;;5047280;28;1494;-73
2022/05/11 16:28:29;;;;;;;;;;;;;;;;;;5052768;28;1982;-72
2022/05/11 16:30:55;;;;;;;;;;;;;;;;;;5041883;28;1439;-72
2022/05/11 16:33:22;;;;;;;;;;;;;;;;;;5053067;28;1114;-73
2022/05/11 16:35:49;;;;;;;;;;;;;;;;;;5054338;28;1408;-72
2022/05/11 16:38:15;;;;;;;;;;;;;;;;;;5043944;28;1451;-72
2022/05/11 16:40:41;;;;;;;;;;;;;;;;;;5046565;28;1440;-72
2022/05/11 16:43:08;;;;;;;;;;;;;;;;;;5045025;28;1249;-73
2022/05/11 16:45:34;;;;;;;;;;;;;;;;;;5054219;28;1302;-73
2022/05/11 16:48:00;;;;;;;;;;;;;;;;;;5050418;28;1981;-72
2022/05/11 16:50:26;;;;;;;;;;;;;;;;;;5046573;28;1400;-72
2022/05/11 16:52:54;;;;;;;;;;;;;;;;;;5051191;28;1265;-72
2022/05/11 16:55:20;;;;;;;;;;;;;;;;;;5052823;28;1341;-72
2022/05/11 16:57:46;;;;;;;;;;;;;;;;;;5043670;28;1546;-71
2022/05/11 17:00:13;;;;;;;;;;;;;;;;;;5040746;28;1504;-72
2022/05/11 17:02:39;;;;;;;;;;;;;;;;;;5043078;28;1451;-72
2022/05/11 17:05:06;;;;;;;;;;;;;;;;;;5043697;28;1417;-73
2022/05/11 17:07:32;;;;;;;;;;;;;;;;;;5039240;28;1975;-72
2022/05/11 17:10:00;;;;;;;;;;;;;;;;;;5039358;28;1534;-72
2022/05/11 17:12:26;;;;;;;;;;;;;;;;;;5046331;28;1310;-72
2022/05/11 17:14:53;;;;;;;;;;;;;;;;;;5044017;28;1471;-72
2022/05/11 17:17:19;;;;;;;;;;;;;;;;;;5053287;28;1099;-73
2022/05/11 17:19:45;;;;;;;;;;;;;;;;;;5053615;28;1023;-72
2022/05/11 17:22:14;;;;;;;;;;;;;;;;;;5040472;28;1482;-72
2022/05/11 17:24:40;;;;;;;;;;;;;;;;;;5052269;28;1477;-72
2022/05/11 17:27:08;;;;;;;;;;;;;;;;;;5041265;28;1426;-72
2022/05/11 17:29:34;;;;;;;;;;;;;;;;;;5041581;28;1918;-71
2022/05/11 17:32:00;;;;;;;;;;;;;;;;;;5041200;28;1210;-72
2022/05/11 17:34:26;;;;;;;;;;;;;;;;;;5033293;28;1367;-72
2022/05/11 17:36:52;;;;;;;;;;;;;;;;;;5031482;28;1155;-72
2022/05/11 17:39:18;;;;;;;;;;;;;;;;;;5037215;28;1399;-72
2022/05/11 17:41:45;;;;;;;;;;;;;;;;;;5046270;28;1407;-71
2022/05/11 17:44:12;;;;;;;;;;;;;;;;;;5044940;28;1476;-72
2022/05/11 17:46:38;;;;;;;;;;;;;;;;;;5042630;28;1431;-72
2022/05/11 17:49:06;;;;;;;;;;;;;;;;;;5038762;28;1934;-71
2022/05/11 17:51:32;;;;;;;;;;;;;;;;;;5030694;28;1145;-71
2022/05/11 17:53:58;;;;;;;;;;;;;;;;;;5033324;28;1522;-72
2022/05/11 17:56:24;;;;;;;;;;;;;;;;;;5042029;28;1438;-72